ETOU/WIE METAR and TAF weather

Enter ICAO airport designator
Station Type Date Time Source
ETOU METAR 2022/01/25 03:56 UTC NOAA

ETOU 250356Z AUTO 36003KT 9999 CLR 01/00 A3050 RMK AO2 SLP338 T00050004 $


Station Type Date Time Source
ETOU Decoded METAR 2022/01/25 03:56 UTC NOAA

Wiesbaden, Germany (ETOU) 50-03N 008-20E
Jan 24, 2022 - 10:56 PM EST / 2022.01.25 0356 UTC
Wind: from the N (360 degrees) at 3 MPH (3 KT):0
Visibility: greater than 7 mile(s):0
Sky conditions: clear
Temperature: 32.9 F (0.5 C)
Dew Point: 32.7 F (0.4 C)
Relative Humidity: 99%
Pressure (altimeter): 30.5 in. Hg (1032 hPa)
ob: ETOU 250356Z AUTO 36003KT 9999 CLR 01/00 A3050 RMK AO2 SLP338 T00050004
cycle: 4

Station Type Date Time Source
ETOU TAF 2022/01/24 20:59 UTC NOAA

TAF ETOU 242000Z 2420/2602 VRB04KT 9999 OVC015 QNH3053INS
BECMG 2505/2506 VRB03KT 8000 BR BKN005 OVC010 QNH3051INS
BECMG 2507/2508 VRB02KT 1600 BR BKN005 OVC007 QNH3050INS
TEMPO 2508/2513 0800 FG VV002
BECMG 2519/2520 VRB04KT 3200 BR BKN003 OVC006 QNH3049INS TX05/2516Z TN01/2508Z LAST NO
AMDS AFT 2420 NEXT 2504

Example: see airport list